Time;durP1;ratioP1;P1;durP2;ratioP2;P2;SDS_P1;SDS_P2;PMS_P1;PMS_P2;Temp;Humidity;BMP_temperature;BMP_pressure;BME280_temperature;BME280_humidity;BME280_pressure;Samples;Min_cycle;Max_cycle;Signal;HPM_P1;HPM_P2
2022/05/09 00:00:11;;;;;;;2.25;1.65;;;4.90;99.90;;;;;;4992619;28;20062;-78
2022/05/09 00:02:41;;;;;;;2.13;1.55;;;4.90;99.90;;;;;;4990236;28;20050;-77
2022/05/09 00:05:13;;;;;;;2.28;1.45;;;4.90;99.90;;;;;;4992004;28;20507;-78
2022/05/09 00:07:41;;;;;;;5.90;2.58;;;4.90;99.90;;;;;;5007517;28;20499;-81
2022/05/09 00:10:10;;;;;;;4.97;1.45;;;4.90;99.90;;;;;;5005146;28;20181;-81
2022/05/09 00:12:38;;;;;;;4.68;1.50;;;4.90;99.90;;;;;;4994684;28;20050;-84
2022/05/09 00:15:06;;;;;;;1.77;1.48;;;4.90;99.90;;;;;;5011543;28;20064;-82
2022/05/09 00:17:34;;;;;;;2.63;1.85;;;4.90;99.90;;;;;;4994489;28;20153;-81
2022/05/09 00:20:01;;;;;;;6.15;1.55;;;4.90;99.90;;;;;;5030538;28;20144;-81
2022/05/09 00:22:31;;;;;;;3.78;1.25;;;4.90;99.90;;;;;;5000097;28;20104;-80
2022/05/09 00:25:01;;;;;;;2.28;1.60;;;4.90;99.90;;;;;;5013014;28;20140;-80
2022/05/09 00:27:30;;;;;;;1.48;1.38;;;4.80;99.90;;;;;;5011183;28;20050;-83
2022/05/09 00:29:58;;;;;;;2.03;1.33;;;4.80;99.90;;;;;;5008856;28;20054;-84
2022/05/09 00:32:25;;;;;;;2.03;1.60;;;4.80;99.90;;;;;;5022750;28;20375;-81
2022/05/09 00:34:52;;;;;;;2.22;1.25;;;4.80;99.90;;;;;;5009598;28;20069;-82
2022/05/09 00:37:21;;;;;;;2.10;1.85;;;4.70;99.90;;;;;;5007473;28;20044;-82
2022/05/09 00:39:50;;;;;;;3.13;1.27;;;4.70;99.90;;;;;;5038005;28;20046;-81
2022/05/09 00:42:18;;;;;;;3.83;1.40;;;4.70;99.90;;;;;;5018487;28;20071;-80
2022/05/09 00:44:45;;;;;;;3.25;1.70;;;4.70;99.90;;;;;;5023461;28;20048;-77
2022/05/09 00:47:13;;;;;;;2.60;1.33;;;4.60;99.90;;;;;;4996684;28;20061;-77
2022/05/09 00:49:46;;;;;;;1.80;1.40;;;4.60;99.90;;;;;;5006905;28;20532;-77
2022/05/09 00:52:18;;;;;;;1.58;1.13;;;4.60;99.90;;;;;;5046253;28;20595;-78
2022/05/09 00:54:51;;;;;;;2.20;1.20;;;4.50;99.90;;;;;;5012663;28;20510;-77
2022/05/09 00:57:23;;;;;;;2.00;1.20;;;4.50;99.90;;;;;;5017045;28;20042;-77
2022/05/09 00:59:53;;;;;;;2.55;1.17;;;4.50;99.90;;;;;;5046065;28;20419;-78
2022/05/09 01:02:21;;;;;;;1.30;1.15;;;4.50;99.90;;;;;;5014458;28;20061;-82
2022/05/09 01:04:54;;;;;;;7.22;1.75;;;4.50;99.90;;;;;;4996178;28;20042;-80
2022/05/09 01:07:21;;;;;;;1.50;1.40;;;4.50;99.90;;;;;;5046730;28;20076;-82
2022/05/09 01:09:52;;;;;;;3.15;1.38;;;4.40;99.90;;;;;;5013200;28;20301;-82
2022/05/09 01:12:23;;;;;;;3.10;1.50;;;4.40;99.90;;;;;;5015483;28;20059;-81
2022/05/09 01:14:51;;;;;;;3.50;1.42;;;4.40;99.90;;;;;;5000621;28;20493;-82
2022/05/09 01:17:19;;;;;;;2.03;1.50;;;4.30;99.90;;;;;;5014796;28;20129;-82
2022/05/09 01:19:47;;;;;;;3.72;1.45;;;4.30;99.90;;;;;;5031033;28;20057;-79
2022/05/09 01:22:23;;;;;;;1.88;1.40;;;4.30;99.90;;;;;;5026667;28;20037;-79
2022/05/09 01:24:50;;;;;;;3.03;1.50;;;4.30;99.90;;;;;;5012700;28;20053;-78
2022/05/09 01:27:18;;;;;;;4.20;1.25;;;4.30;99.90;;;;;;5019462;28;20053;-78
2022/05/09 01:29:52;;;;;;;2.00;1.45;;;4.30;99.90;;;;;;5045133;28;20050;-78
2022/05/09 01:32:26;;;;;;;2.85;1.48;;;4.30;99.90;;;;;;5016777;28;20049;-78
2022/05/09 01:34:59;;;;;;;3.15;1.75;;;4.30;99.90;;;;;;5028043;28;20057;-78
2022/05/09 01:37:31;;;;;;;2.92;1.80;;;4.30;99.90;;;;;;5012340;28;20050;-79
2022/05/09 01:39:58;;;;;;;2.10;1.40;;;4.20;99.90;;;;;;5012593;28;20050;-79
2022/05/09 01:42:26;;;;;;;11.23;1.70;;;4.20;99.90;;;;;;5013040;28;20042;-76
2022/05/09 01:44:53;;;;;;;1.90;1.65;;;4.20;99.90;;;;;;5028507;28;20046;-77
2022/05/09 01:50:06;;;;;;;2.95;1.88;;;4.20;99.90;;;;;;5015033;28;20169;-77
2022/05/09 01:52:39;;;;;;;3.45;1.75;;;4.20;99.90;;;;;;5012932;28;20050;-78
2022/05/09 01:55:06;;;;;;;3.90;1.70;;;4.20;99.90;;;;;;5013571;28;20066;-77
2022/05/09 01:57:34;;;;;;;2.42;1.52;;;4.20;99.90;;;;;;5045040;28;20034;-77
2022/05/09 02:00:04;;;;;;;1.98;1.70;;;4.20;99.90;;;;;;4993517;28;20046;-77
2022/05/09 02:02:41;;;;;;;1.65;1.30;;;4.20;99.90;;;;;;5001635;28;20077;-77
2022/05/09 02:05:09;;;;;;;4.18;1.60;;;4.20;99.90;;;;;;5013004;28;20148;-77
2022/05/09 02:07:38;;;;;;;4.15;1.27;;;4.20;99.90;;;;;;5006807;28;20057;-78
2022/05/09 02:10:06;;;;;;;2.20;1.88;;;4.20;99.90;;;;;;5010166;28;20053;-78
2022/05/09 02:12:33;;;;;;;1.90;1.38;;;4.20;99.90;;;;;;5011950;28;20046;-78
2022/05/09 02:15:01;;;;;;;3.05;1.60;;;4.20;99.90;;;;;;5012796;28;20057;-77
2022/05/09 02:17:31;;;;;;;2.45;1.88;;;4.20;99.90;;;;;;4990684;28;20057;-78
2022/05/09 02:19:58;;;;;;;4.18;2.45;;;4.20;99.90;;;;;;4991904;28;20046;-78
2022/05/09 02:22:26;;;;;;;2.45;2.25;;;4.20;99.90;;;;;;4993318;28;20060;-77
2022/05/09 02:24:55;;;;;;;5.53;1.60;;;4.10;99.90;;;;;;5008641;28;20054;-78
2022/05/09 02:27:25;;;;;;;2.65;1.67;;;4.20;99.90;;;;;;4994913;28;20097;-82
2022/05/09 02:29:53;;;;;;;2.67;1.73;;;4.30;99.90;;;;;;5009157;28;20088;-82
2022/05/09 02:32:20;;;;;;;4.10;1.63;;;4.30;99.90;;;;;;5002367;28;20057;-81
2022/05/09 02:34:48;;;;;;;4.40;1.60;;;4.40;99.90;;;;;;5007758;28;20072;-81
2022/05/09 02:37:15;;;;;;;3.38;1.58;;;4.40;99.90;;;;;;5002174;28;20083;-81
2022/05/09 02:39:44;;;;;;;2.42;1.50;;;4.50;99.90;;;;;;5012650;28;20586;-80
2022/05/09 02:42:14;;;;;;;1.77;1.67;;;4.50;99.90;;;;;;5012949;28;20054;-82
2022/05/09 02:44:41;;;;;;;4.22;1.52;;;4.60;99.90;;;;;;5000983;28;20058;-80
2022/05/09 02:47:08;;;;;;;3.10;1.60;;;4.60;99.90;;;;;;5018278;28;20407;-81
2022/05/09 02:49:36;;;;;;;3.80;1.48;;;4.70;99.90;;;;;;5012136;28;20045;-81
2022/05/09 02:52:04;;;;;;;2.45;1.83;;;4.70;99.90;;;;;;5013090;28;20073;-82
2022/05/09 02:54:32;;;;;;;4.63;1.80;;;4.70;99.90;;;;;;4995921;28;20054;-82
2022/05/09 02:56:59;;;;;;;3.13;1.65;;;4.70;99.90;;;;;;5013458;28;20065;-82
2022/05/09 02:59:34;;;;;;;3.28;1.70;;;4.60;99.90;;;;;;5028223;28;20494;-82
2022/05/09 03:02:05;;;;;;;6.07;2.90;;;4.60;99.90;;;;;;5021247;28;20474;-81
2022/05/09 03:04:41;;;;;;;2.85;1.80;;;4.70;99.90;;;;;;4994055;28;20105;-80
2022/05/09 03:07:14;;;;;;;2.53;1.60;;;4.70;99.90;;;;;;5044657;28;20208;-80
2022/05/09 03:09:43;;;;;;;4.43;1.85;;;4.70;99.90;;;;;;5013871;28;20477;-80
2022/05/09 03:12:14;;;;;;;2.83;1.70;;;4.70;99.90;;;;;;5007173;28;20085;-81
2022/05/09 03:14:43;;;;;;;3.10;1.17;;;4.80;99.90;;;;;;5032816;28;20072;-82
2022/05/09 03:17:14;;;;;;;5.05;1.63;;;4.80;99.90;;;;;;5016109;28;20052;-82
2022/05/09 03:19:42;;;;;;;4.65;1.42;;;4.80;99.90;;;;;;5010873;28;20056;-83
2022/05/09 03:22:09;;;;;;;2.90;1.35;;;4.80;99.90;;;;;;5013174;28;20056;-80
2022/05/09 03:24:37;;;;;;;5.80;1.98;;;4.80;99.90;;;;;;5012219;28;20087;-82
2022/05/09 03:27:14;;;;;;;4.63;1.80;;;4.90;99.90;;;;;;5015079;28;20071;-82
2022/05/09 03:29:43;;;;;;;7.38;1.80;;;4.90;99.90;;;;;;5001730;28;20043;-82
2022/05/09 03:32:11;;;;;;;5.68;1.55;;;5.00;99.90;;;;;;4994884;28;20056;-84
2022/05/09 03:34:38;;;;;;;1.70;1.60;;;5.00;99.90;;;;;;5014887;28;20133;-82
2022/05/09 03:37:06;;;;;;;3.72;1.40;;;5.00;99.90;;;;;;4993434;28;20236;-83
2022/05/09 03:39:34;;;;;;;5.28;1.42;;;5.10;99.90;;;;;;5002238;28;20045;-83
2022/05/09 03:42:01;;;;;;;1.98;1.17;;;5.10;99.90;;;;;;5012192;28;20052;-82
2022/05/09 03:44:28;;;;;;;4.50;1.35;;;5.20;99.90;;;;;;5002154;28;20054;-83
2022/05/09 03:46:59;;;;;;;3.47;1.25;;;5.20;99.90;;;;;;5003402;28;20404;-82
2022/05/09 03:49:27;;;;;;;1.90;1.13;;;5.30;99.90;;;;;;5029069;28;20048;-82
2022/05/09 03:51:54;;;;;;;4.43;1.00;;;5.30;99.90;;;;;;5014789;28;20515;-82
2022/05/09 03:54:21;;;;;;;5.50;1.10;;;5.40;99.90;;;;;;5015286;28;20046;-81
2022/05/09 03:56:49;;;;;;;5.45;1.13;;;5.50;99.90;;;;;;5017452;28;20219;-83
2022/05/09 03:59:16;;;;;;;2.15;1.48;;;5.50;99.90;;;;;;4997068;28;20417;-83
2022/05/09 04:01:43;;;;;;;1.80;1.15;;;5.60;99.90;;;;;;5012684;28;20054;-83
2022/05/09 04:04:11;;;;;;;2.67;1.30;;;5.60;99.90;;;;;;5014336;28;20474;-82
2022/05/09 04:06:39;;;;;;;1.95;1.38;;;5.70;99.90;;;;;;5013350;28;20053;-83
2022/05/09 04:09:06;;;;;;;2.38;1.30;;;5.70;99.90;;;;;;5012898;28;20072;-83
2022/05/09 04:11:35;;;;;;;4.22;0.75;;;5.80;99.90;;;;;;5011642;28;20604;-83
2022/05/09 04:14:03;;;;;;;2.40;2.20;;;5.90;99.90;;;;;;5012711;28;20075;-84
2022/05/09 04:19:18;;;;;;;6.30;1.02;;;5.90;99.90;;;;;;4994002;28;20074;-85
2022/05/09 04:21:45;;;;;;;1.77;0.88;;;6.00;98.80;;;;;;4994234;28;20042;-83
2022/05/09 04:24:13;;;;;;;4.60;1.00;;;6.10;98.20;;;;;;4996827;28;20086;-83
2022/05/09 04:26:41;;;;;;;3.53;1.17;;;6.10;97.60;;;;;;5020559;28;20045;-79
2022/05/09 04:29:08;;;;;;;2.22;0.90;;;6.10;97.30;;;;;;5032481;28;20120;-81
2022/05/09 04:31:37;;;;;;;1.50;1.38;;;6.20;98.10;;;;;;5014612;28;20050;-81
2022/05/09 04:34:05;;;;;;;2.15;1.00;;;6.30;96.80;;;;;;5018819;28;20057;-80
2022/05/09 04:36:35;;;;;;;1.77;0.93;;;6.30;95.30;;;;;;5013603;28;20517;-80
2022/05/09 04:39:09;;;;;;;5.43;1.23;;;6.40;93.90;;;;;;5011380;28;20054;-80
2022/05/09 04:41:37;;;;;;;2.25;1.20;;;6.40;93.50;;;;;;5008563;28;20038;-79
2022/05/09 04:44:05;;;;;;;1.33;1.02;;;6.50;93.20;;;;;;5027858;28;20073;-80
2022/05/09 04:46:33;;;;;;;2.65;0.80;;;6.60;92.60;;;;;;5013559;28;20045;-81
2022/05/09 04:49:00;;;;;;;1.35;0.80;;;6.70;92.10;;;;;;5020911;28;20069;-82
2022/05/09 04:51:28;;;;;;;1.90;0.68;;;6.80;91.30;;;;;;5015375;28;20050;-83
2022/05/09 04:53:57;;;;;;;2.63;1.15;;;6.80;89.70;;;;;;5017517;28;20176;-84
2022/05/09 04:56:24;;;;;;;4.10;1.20;;;6.90;89.40;;;;;;5013834;28;20061;-82
2022/05/09 04:58:51;;;;;;;3.15;0.80;;;7.00;89.50;;;;;;5046819;28;20053;-82
2022/05/09 05:01:19;;;;;;;1.10;0.73;;;7.10;88.20;;;;;;5038749;28;20049;-83
2022/05/09 05:03:47;;;;;;;0.95;0.95;;;7.20;87.40;;;;;;5015006;28;20042;-82
2022/05/09 05:06:15;;;;;;;3.90;0.90;;;7.20;87.00;;;;;;5046448;28;20053;-83
2022/05/09 05:08:43;;;;;;;0.80;0.80;;;7.30;84.60;;;;;;5015778;28;20041;-83
2022/05/09 05:11:11;;;;;;;2.30;0.88;;;7.40;83.60;;;;;;5009172;28;20137;-83
2022/05/09 05:13:39;;;;;;;1.90;0.70;;;7.50;81.80;;;;;;5015323;28;20077;-84
2022/05/09 05:16:08;;;;;;;3.92;1.08;;;7.60;81.90;;;;;;5016492;28;20053;-83
2022/05/09 05:18:36;;;;;;;2.00;1.48;;;7.70;81.30;;;;;;5014541;28;20498;-83
2022/05/09 05:21:10;;;;;;;2.10;0.90;;;7.80;79.00;;;;;;5016640;28;20519;-79
2022/05/09 05:23:38;;;;;;;1.52;0.82;;;8.20;79.10;;;;;;5002678;28;20421;-79
2022/05/09 05:26:05;;;;;;;4.03;1.73;;;8.70;78.20;;;;;;5012308;28;20057;-78
2022/05/09 05:28:34;;;;;;;2.60;0.82;;;9.30;75.50;;;;;;5005845;28;20257;-82
2022/05/09 05:31:18;;;;;;;4.32;0.77;;;9.90;72.10;;;;;;5006798;28;20050;-83
2022/05/09 05:33:46;;;;;;;4.43;0.80;;;10.40;69.80;;;;;;5027894;28;20073;-81
2022/05/09 05:36:17;;;;;;;3.35;1.13;;;10.80;67.80;;;;;;5015457;28;20053;-81
2022/05/09 05:38:51;;;;;;;4.82;1.10;;;11.20;65.80;;;;;;5014267;28;20042;-78
2022/05/09 05:41:19;;;;;;;6.57;1.00;;;11.70;64.10;;;;;;4999687;28;20092;-78
2022/05/09 05:43:48;;;;;;;1.38;0.93;;;12.10;60.30;;;;;;5013081;28;20042;-79
2022/05/09 05:46:16;;;;;;;2.13;1.00;;;12.50;59.90;;;;;;5006109;28;20137;-79
2022/05/09 05:48:43;;;;;;;1.00;0.80;;;12.90;58.30;;;;;;5028612;28;20046;-80
2022/05/09 05:51:12;;;;;;;2.75;1.52;;;13.20;55.80;;;;;;5012958;28;20069;-79
2022/05/09 05:53:39;;;;;;;5.72;2.58;;;13.50;55.30;;;;;;5012770;28;20048;-77
2022/05/09 05:56:06;;;;;;;3.58;0.60;;;13.90;53.90;;;;;;5034874;28;20130;-78
2022/05/09 05:58:34;;;;;;;0.63;0.50;;;14.10;51.30;;;;;;5033544;28;20042;-82
2022/05/09 06:01:05;;;;;;;2.15;1.60;;;14.30;51.60;;;;;;5016079;28;20065;-83
2022/05/09 06:03:32;;;;;;;1.15;0.82;;;14.50;49.60;;;;;;5021719;28;20046;-82
2022/05/09 06:06:01;;;;;;;1.88;1.02;;;14.70;49.60;;;;;;5014208;28;20498;-82
2022/05/09 06:08:30;;;;;;;4.03;0.52;;;14.90;48.70;;;;;;5015777;28;20069;-82
2022/05/09 06:11:00;;;;;;;1.60;0.60;;;15.00;47.10;;;;;;5014138;28;20050;-80
2022/05/09 06:13:28;;;;;;;5.05;0.60;;;15.20;46.60;;;;;;5012536;28;20069;-79
2022/05/09 06:15:55;;;;;;;1.38;0.60;;;15.50;47.40;;;;;;5028094;28;20050;-81
2022/05/09 06:18:24;;;;;;;0.85;0.85;;;16.00;47.20;;;;;;5024900;28;20076;-80
2022/05/09 06:20:51;;;;;;;1.48;0.80;;;16.10;46.30;;;;;;5037042;28;20045;-85
2022/05/09 06:23:21;;;;;;;1.67;0.80;;;16.30;45.10;;;;;;5014483;28;20054;-89
2022/05/09 06:25:49;;;;;;;3.60;0.55;;;16.10;44.60;;;;;;5017513;28;20050;-86
2022/05/09 06:28:19;;;;;;;1.48;0.80;;;16.00;45.00;;;;;;5043686;28;20088;-87
2022/05/09 06:30:53;;;;;;;3.13;0.82;;;16.30;45.20;;;;;;5035232;28;20145;-86
2022/05/09 06:33:31;;;;;;;1.10;0.60;;;16.50;44.50;;;;;;5015480;28;20074;-83
2022/05/09 06:36:01;;;;;;;2.45;0.60;;;16.70;44.40;;;;;;4994941;28;20466;-82
2022/05/09 06:38:30;;;;;;;2.75;1.00;;;17.10;44.10;;;;;;5010891;28;20113;-84
2022/05/09 06:41:01;;;;;;;4.80;0.52;;;17.30;43.20;;;;;;5021521;28;20056;-84
2022/05/09 06:43:30;;;;;;;3.65;1.10;;;17.40;41.50;;;;;;5006709;28;20487;-80
2022/05/09 06:46:01;;;;;;;0.98;0.80;;;17.40;40.90;;;;;;5027755;28;20421;-82
2022/05/09 06:48:41;;;;;;;0.90;0.50;;;17.80;40.40;;;;;;5052708;28;20042;-81
2022/05/09 06:51:16;;;;;;;3.03;0.52;;;18.20;39.40;;;;;;5016716;28;20045;-84
2022/05/09 06:56:44;;;;;;;0.82;0.70;;;18.80;38.80;;;;;;5011169;28;20042;-84
2022/05/09 06:59:19;;;;;;;0.60;0.60;;;19.10;39.00;;;;;;5013112;28;20045;-83
2022/05/09 07:04:50;;;;;;;2.22;0.80;;;19.70;38.10;;;;;;4997575;28;20058;-88
2022/05/09 07:07:33;;;;;;;2.13;1.92;;;19.60;38.20;;;;;;5011865;28;20046;-79
2022/05/09 07:10:02;;;;;;;0.85;0.70;;;19.60;39.30;;;;;;5027692;28;20080;-87
2022/05/09 07:12:33;;;;;;;2.33;0.50;;;19.20;38.20;;;;;;5018306;28;20042;-89
2022/05/09 07:15:01;;;;;;;3.63;1.83;;;18.60;39.80;;;;;;5035230;28;20057;-90
2022/05/09 07:17:28;;;;;;;2.90;1.30;;;18.30;40.10;;;;;;5012934;28;20073;-81
2022/05/09 07:19:57;;;;;;;3.40;0.80;;;18.20;40.50;;;;;;5034779;28;20414;-81
2022/05/09 07:22:24;;;;;;;0.55;0.47;;;18.30;39.50;;;;;;5020719;28;20045;-88
2022/05/09 07:25:02;;;;;;;;;;;;;;;;;;;;;
2022/05/09 07:27:57;;;;;;;2.15;0.80;;;17.70;39.30;;;;;;5021839;28;20053;-83
2022/05/09 07:34:13;;;;;;;0.97;0.60;;;18.00;40.10;;;;;;4952498;29;20055;-83
2022/05/09 07:37:29;;;;;;;;;;;;;;;;;;;;;
2022/05/09 07:41:08;;;;;;;;;;;;;;;;;;;;;
2022/05/09 07:47:18;;;;;;;1.77;1.17;;;18.80;39.10;;;;;;4955338;28;20044;-88
2022/05/09 07:50:56;;;;;;;;;;;;;;;;;;;;;
2022/05/09 07:53:47;;;;;;;0.95;0.80;;;18.80;38.10;;;;;;4935990;28;20051;-90
2022/05/09 07:56:23;;;;;;;0.90;0.80;;;18.10;38.80;;;;;;4970759;28;20054;-88
2022/05/09 07:59:42;;;;;;;1.45;1.27;;;18.30;39.20;;;;;;4974601;28;20053;-86
2022/05/09 08:02:36;;;;;;;2.65;0.85;;;19.00;39.10;;;;;;4966354;28;20115;-88
2022/05/09 08:05:28;;;;;;;0.88;0.38;;;19.30;39.40;;;;;;4959530;29;20416;-86
2022/05/09 08:08:06;;;;;;;0.85;0.55;;;19.90;38.70;;;;;;4971087;28;20123;-86
2022/05/09 08:10:42;;;;;;;0.95;0.70;;;20.30;38.20;;;;;;4958786;29;20083;-87
2022/05/09 08:13:18;;;;;;;0.98;0.60;;;20.20;37.10;;;;;;4953456;29;20609;-81
2022/05/09 08:15:53;;;;;;;2.00;1.15;;;20.80;37.30;;;;;;4931898;29;20055;-83
2022/05/09 08:18:21;;;;;;;3.45;3.15;;;21.30;37.00;;;;;;4923667;29;20652;-81
2022/05/09 08:20:55;;;;;;;0.82;0.73;;;21.40;36.00;;;;;;4923337;29;20055;-86
2022/05/09 08:23:23;;;;;;;4.78;0.68;;;20.90;35.70;;;;;;4933490;29;20051;-78
2022/05/09 08:25:55;;;;;;;0.82;0.43;;;20.40;36.00;;;;;;4935093;29;20063;-78
2022/05/09 08:28:24;;;;;;;3.30;0.60;;;19.70;37.00;;;;;;4940530;29;20139;-78
2022/05/09 08:30:52;;;;;;;4.10;0.60;;;18.80;36.90;;;;;;4938028;29;20493;-79
2022/05/09 08:33:22;;;;;;;0.50;0.50;;;18.20;39.10;;;;;;4936664;29;20058;-78
2022/05/09 08:35:51;;;;;;;0.73;0.52;;;17.80;39.70;;;;;;4937283;29;20673;-76
2022/05/09 08:38:20;;;;;;;1.25;0.85;;;17.40;40.30;;;;;;4935628;29;20059;-80
2022/05/09 08:40:58;;;;;;;1.63;0.82;;;17.30;40.50;;;;;;4947698;29;20139;-78
2022/05/09 08:43:44;;;;;;;2.83;2.45;;;17.00;41.10;;;;;;4938635;29;20091;-82
2022/05/09 08:46:20;;;;;;;1.30;0.70;;;16.40;42.50;;;;;;4939928;29;20508;-81
2022/05/09 08:49:09;;;;;;;0.77;0.52;;;15.70;42.80;;;;;;4936233;29;20052;-81
2022/05/09 08:51:45;;;;;;;2.40;0.80;;;15.40;44.30;;;;;;4939788;29;20055;-84
2022/05/09 08:54:20;;;;;;;0.80;0.80;;;15.40;45.10;;;;;;4930670;29;20083;-83
2022/05/09 08:56:51;;;;;;;3.05;0.80;;;15.60;44.20;;;;;;4942672;29;20493;-79
2022/05/09 08:59:28;;;;;;;2.10;0.80;;;15.50;43.80;;;;;;4933956;29;20051;-84
2022/05/09 09:02:03;;;;;;;4.15;0.80;;;15.30;44.40;;;;;;4962176;28;20063;-85
2022/05/09 09:04:36;;;;;;;2.08;1.27;;;15.50;45.10;;;;;;4948854;29;20086;-81
2022/05/09 09:07:42;;;;;;;1.73;1.15;;;15.70;44.70;;;;;;4942506;29;20052;-82
2022/05/09 09:10:22;;;;;;;2.15;0.70;;;15.40;44.50;;;;;;4942186;29;20383;-86
2022/05/09 09:13:00;;;;;;;1.58;1.10;;;15.20;45.10;;;;;;4947656;29;20091;-86
2022/05/09 09:15:40;;;;;;;2.05;1.60;;;15.10;45.20;;;;;;4939526;29;20052;-85
2022/05/09 09:18:24;;;;;;;2.53;0.95;;;14.90;45.60;;;;;;4939584;29;20059;-80
2022/05/09 09:21:00;;;;;;;2.80;1.33;;;14.50;46.00;;;;;;4919429;29;20051;-81
2022/05/09 09:23:53;;;;;;;7.15;4.78;;;14.10;47.00;;;;;;4942753;29;20055;-86
2022/05/09 09:26:28;;;;;;;;;;;13.70;47.60;;;;;;4962923;29;20716;-86
2022/05/09 09:29:03;;;;;;;1.13;0.70;;;13.50;48.90;;;;;;4939170;29;19973;-81
2022/05/09 09:31:35;;;;;;;2.10;0.80;;;13.30;47.80;;;;;;4935165;29;20469;-79
2022/05/09 09:37:11;;;;;;;2.35;1.00;;;13.20;49.10;;;;;;4942789;29;20083;-85
2022/05/09 09:39:38;;;;;;;7.25;1.20;;;13.80;48.20;;;;;;4946039;29;20047;-79
2022/05/09 09:42:06;;;;;;;3.30;0.80;;;14.90;47.30;;;;;;4941218;29;20143;-77
2022/05/09 09:44:38;;;;;;;6.28;0.90;;;15.90;45.00;;;;;;4940175;29;20075;-82
2022/05/09 09:47:10;;;;;;;2.73;0.73;;;17.20;43.90;;;;;;4938639;29;20055;-79
2022/05/09 09:49:40;;;;;;;4.32;0.70;;;18.20;42.20;;;;;;4942123;29;20059;-80
2022/05/09 09:52:26;;;;;;;2.83;0.85;;;18.30;40.90;;;;;;4945157;29;20098;-90
2022/05/09 09:55:11;;;;;;;1.40;0.68;;;17.70;41.70;;;;;;4932980;29;20051;-86
2022/05/09 09:57:41;;;;;;;2.60;1.10;;;16.80;42.50;;;;;;4934021;29;20055;-84
2022/05/09 10:00:19;;;;;;;2.72;0.95;;;16.50;44.00;;;;;;4939846;29;20051;-83
2022/05/09 10:02:50;;;;;;;0.68;0.60;;;16.70;44.30;;;;;;4940556;29;20052;-81
2022/05/09 10:05:22;;;;;;;1.08;0.63;;;16.50;43.80;;;;;;4939866;29;20059;-81
2022/05/09 10:07:50;;;;;;;3.15;0.93;;;16.30;44.60;;;;;;4927713;29;20063;-82
2022/05/09 10:10:21;;;;;;;1.25;0.77;;;16.20;44.60;;;;;;4933350;29;20098;-78
2022/05/09 10:12:55;;;;;;;1.63;0.60;;;16.10;45.10;;;;;;4935312;29;20055;-78
2022/05/09 10:15:30;;;;;;;1.98;0.95;;;16.00;45.10;;;;;;4937189;29;20456;-82
2022/05/09 10:18:00;;;;;;;1.60;0.70;;;16.00;46.00;;;;;;4934413;29;20528;-78
2022/05/09 10:20:36;;;;;;;1.90;1.23;;;16.80;45.80;;;;;;4933307;29;20056;-80
2022/05/09 10:26:01;;;;;;;1.67;0.70;;;20.30;41.20;;;;;;4936312;29;20059;-78
2022/05/09 10:28:35;;;;;;;1.23;1.10;;;20.50;38.40;;;;;;4936900;29;20429;-79
2022/05/09 10:31:16;;;;;;;1.50;0.80;;;19.60;37.70;;;;;;4951765;29;20099;-79
2022/05/09 10:33:54;;;;;;;2.22;0.80;;;19.10;39.20;;;;;;4937636;29;20079;-80
2022/05/09 10:36:37;;;;;;;1.67;1.58;;;18.50;39.80;;;;;;4940959;29;20051;-80
2022/05/09 10:39:13;;;;;;;6.47;1.55;;;17.30;41.40;;;;;;4934643;29;20071;-77
2022/05/09 10:41:43;;;;;;;1.88;0.82;;;16.10;44.30;;;;;;4934359;29;20416;-78
2022/05/09 10:44:17;;;;;;;1.70;1.45;;;15.30;45.60;;;;;;4934746;29;20066;-78
2022/05/09 10:46:50;;;;;;;3.10;1.27;;;14.80;46.90;;;;;;4934265;29;20058;-80
2022/05/09 10:49:32;;;;;;;2.53;1.40;;;14.10;47.60;;;;;;4945348;29;20221;-80
2022/05/09 10:52:07;;;;;;;2.13;1.27;;;13.80;48.80;;;;;;4944006;29;20052;-82
2022/05/09 10:54:47;;;;;;;2.63;0.77;;;13.60;49.60;;;;;;4939618;29;20048;-82
2022/05/09 10:57:21;;;;;;;2.50;1.23;;;13.40;48.90;;;;;;4953128;29;20063;-81
2022/05/09 10:59:50;;;;;;;3.67;0.98;;;13.30;49.20;;;;;;4948829;29;20059;-80
2022/05/09 11:02:25;;;;;;;3.00;0.90;;;13.10;49.40;;;;;;4944528;29;20055;-79
2022/05/09 11:04:54;;;;;;;1.35;0.80;;;13.10;49.60;;;;;;4941021;29;20060;-83
2022/05/09 11:07:31;;;;;;;0.77;0.70;;;13.10;48.90;;;;;;4954710;29;20210;-81
2022/05/09 11:10:14;;;;;;;2.65;0.82;;;13.00;49.50;;;;;;4932653;29;20051;-82
2022/05/09 11:12:54;;;;;;;1.55;1.08;;;13.10;49.40;;;;;;4930422;29;20098;-81
2022/05/09 11:15:31;;;;;;;0.70;0.68;;;13.20;50.20;;;;;;4937337;29;20047;-81
2022/05/09 11:18:30;;;;;;;4.10;0.50;;;13.30;50.40;;;;;;4935886;29;20083;-81
2022/05/09 11:21:09;;;;;;;3.50;0.95;;;13.60;49.80;;;;;;4928426;29;20074;-85
2022/05/09 11:24:04;;;;;;;4.57;0.70;;;13.80;50.50;;;;;;4950852;28;20087;-84
2022/05/09 11:26:44;;;;;;;1.38;1.02;;;14.20;49.90;;;;;;4937298;29;20139;-84
2022/05/09 11:29:37;;;;;;;1.20;0.77;;;14.80;49.40;;;;;;4936613;29;20473;-83
2022/05/09 11:32:55;;;;;;;2.90;0.95;;;15.40;48.20;;;;;;4948932;28;20055;-84
2022/05/09 11:35:37;;;;;;;3.20;1.02;;;16.00;47.70;;;;;;4937444;29;20063;-82
2022/05/09 11:38:43;;;;;;;;;;;;;;;;;;;;;
2022/05/09 11:41:31;;;;;;;2.50;0.90;;;15.70;45.60;;;;;;4919427;29;20551;-82
2022/05/09 11:44:12;;;;;;;1.48;0.90;;;15.40;45.40;;;;;;4930519;29;20047;-85
2022/05/09 11:47:29;;;;;;;2.20;1.00;;;14.90;46.30;;;;;;4945945;29;20075;-80
2022/05/09 11:50:27;;;;;;;4.18;1.10;;;14.60;47.00;;;;;;4902069;29;20048;-82
2022/05/09 11:53:05;;;;;;;2.97;0.82;;;14.30;47.30;;;;;;4917954;29;20051;-82
2022/05/09 11:55:41;;;;;;;1.77;1.20;;;14.30;47.50;;;;;;4935981;29;20048;-83
2022/05/09 11:58:14;;;;;;;3.88;1.15;;;14.30;48.60;;;;;;4902950;29;20059;-86
2022/05/09 12:00:49;;;;;;;2.03;0.80;;;14.40;48.20;;;;;;4940575;29;20067;-82
2022/05/09 12:03:39;;;;;;;1.33;1.13;;;14.80;48.20;;;;;;4936327;29;20078;-81
2022/05/09 12:06:09;;;;;;;1.60;1.17;;;15.50;48.40;;;;;;4936606;29;20572;-80
2022/05/09 12:09:09;;;;;;;1.45;1.23;;;17.50;46.90;;;;;;4936479;29;20050;-81
2022/05/09 12:11:53;;;;;;;1.50;1.00;;;18.50;45.50;;;;;;4935949;29;20055;-80
2022/05/09 12:14:44;;;;;;;1.83;1.00;;;19.10;41.90;;;;;;4936699;29;20047;-79
2022/05/09 12:17:32;;;;;;;4.10;1.08;;;18.90;43.10;;;;;;4935561;29;20056;-77
2022/05/09 12:19:59;;;;;;;1.30;1.00;;;18.00;43.20;;;;;;4931162;29;20147;-79
2022/05/09 12:22:49;;;;;;;9.63;1.10;;;18.00;44.60;;;;;;4933894;29;20058;-80
2022/05/09 12:26:03;;;;;;;2.97;0.90;;;18.90;45.30;;;;;;4933255;29;20064;-77
2022/05/09 12:28:37;;;;;;;2.72;1.13;;;20.30;42.90;;;;;;4932939;29;20056;-80
2022/05/09 12:31:05;;;;;;;;;;;21.20;40.80;;;;;;4916624;29;20048;-76
2022/05/09 12:33:38;;;;;;;1.30;0.70;;;20.70;40.00;;;;;;4918296;29;20379;-81
2022/05/09 12:36:14;;;;;;;3.35;1.10;;;20.10;42.00;;;;;;4915665;29;20474;-82
2022/05/09 12:38:43;;;;;;;2.20;1.35;;;19.70;43.20;;;;;;4933133;29;20063;-81
2022/05/09 12:41:14;;;;;;;3.58;0.93;;;19.10;44.90;;;;;;4932684;29;20056;-82
2022/05/09 12:43:51;;;;;;;3.20;1.27;;;19.00;45.20;;;;;;4933577;29;20052;-83
2022/05/09 12:46:23;;;;;;;4.22;1.58;;;19.00;45.80;;;;;;4936966;29;20091;-79
2022/05/09 12:48:52;;;;;;;2.70;1.23;;;18.70;46.80;;;;;;4938282;29;20069;-80
2022/05/09 12:51:21;;;;;;;5.35;1.30;;;19.00;47.40;;;;;;4936830;29;20506;-78
2022/05/09 12:53:50;;;;;;;3.25;1.10;;;21.00;44.00;;;;;;4937105;29;20145;-79
2022/05/09 12:56:22;;;;;;;4.40;1.05;;;22.70;40.00;;;;;;4936353;29;20106;-78
2022/05/09 12:59:02;;;;;;;4.47;2.85;;;24.00;38.80;;;;;;4937591;29;20147;-81
2022/05/09 13:01:31;;;;;;;4.18;1.05;;;25.00;35.80;;;;;;4921246;29;20095;-80
2022/05/09 13:04:01;;;;;;;2.15;0.90;;;25.40;34.20;;;;;;4937348;29;20067;-80
2022/05/09 13:06:31;;;;;;;1.75;1.00;;;26.00;33.50;;;;;;4937099;29;20059;-78
2022/05/09 13:09:12;;;;;;;1.95;1.02;;;26.40;33.60;;;;;;4935330;29;20064;-79
2022/05/09 13:11:39;;;;;;;2.80;1.27;;;27.00;33.10;;;;;;4937496;29;20055;-79
2022/05/09 13:14:15;;;;;;;1.17;1.08;;;26.90;32.10;;;;;;4936677;29;20044;-78
2022/05/09 13:16:55;;;;;;;5.70;1.30;;;24.80;32.90;;;;;;4941570;28;20540;-77
2022/05/09 13:19:22;;;;;;;1.08;0.98;;;22.30;35.50;;;;;;4942695;29;20059;-74
2022/05/09 13:21:51;;;;;;;1.65;1.55;;;21.00;38.20;;;;;;4942944;29;20062;-74
2022/05/09 13:24:23;;;;;;;4.05;1.00;;;21.90;37.10;;;;;;4944562;29;20520;-74
2022/05/09 13:26:53;;;;;;;3.03;1.23;;;21.50;37.40;;;;;;4934312;29;20052;-74
2022/05/09 13:29:28;;;;;;;0.80;0.75;;;20.90;38.00;;;;;;4921325;29;20070;-73
2022/05/09 13:31:56;;;;;;;4.30;1.45;;;20.50;39.00;;;;;;4935750;29;20079;-74
2022/05/09 13:34:30;;;;;;;1.33;0.98;;;20.10;39.70;;;;;;4934476;29;20055;-74
2022/05/09 13:36:58;;;;;;;3.08;1.20;;;19.20;42.10;;;;;;4935853;29;20064;-73
2022/05/09 13:39:29;;;;;;;2.28;1.05;;;18.60;43.30;;;;;;4934727;29;20154;-73
2022/05/09 13:41:58;;;;;;;4.00;1.40;;;18.50;43.70;;;;;;4950326;28;20051;-76
2022/05/09 13:44:26;;;;;;;1.85;1.00;;;19.00;44.10;;;;;;4958223;28;20055;-76
2022/05/09 13:46:58;;;;;;;4.22;1.13;;;20.00;42.50;;;;;;4935430;29;20051;-75
2022/05/09 13:49:26;;;;;;;2.65;1.33;;;21.30;40.80;;;;;;4959293;28;20068;-73
2022/05/09 13:52:01;;;;;;;3.47;2.38;;;22.50;39.00;;;;;;4932847;29;20165;-74
2022/05/09 13:54:29;;;;;;;3.05;1.15;;;23.40;36.60;;;;;;4934997;29;20127;-75